sensor_id;sensor_type;location;lat;lon;timestamp;P1;durP1;ratioP1;P2;durP2;ratioP2
22363;SDS011;11349;53.412;-1.328;2023-04-15T00:01:23;22.25;;;15.45;;
22363;SDS011;11349;53.412;-1.328;2023-04-15T00:03:53;20.33;;;14.02;;
22363;SDS011;11349;53.412;-1.328;2023-04-15T00:06:19;23.98;;;16.27;;
22363;SDS011;11349;53.412;-1.328;2023-04-15T00:08:46;24.73;;;15.35;;
22363;SDS011;11349;53.412;-1.328;2023-04-15T00:11:12;25.27;;;16.05;;
22363;SDS011;11349;53.412;-1.328;2023-04-15T00:13:39;25.75;;;16.83;;
22363;SDS011;11349;53.412;-1.328;2023-04-15T00:16:05;25.48;;;16.98;;
22363;SDS011;11349;53.412;-1.328;2023-04-15T00:18:32;22.58;;;15.95;;
22363;SDS011;11349;53.412;-1.328;2023-04-15T00:20:58;24.98;;;17.35;;
22363;SDS011;11349;53.412;-1.328;2023-04-15T00:23:24;25.77;;;17.00;;
22363;SDS011;11349;53.412;-1.328;2023-04-15T00:25:51;25.92;;;17.10;;
22363;SDS011;11349;53.412;-1.328;2023-04-15T00:28:16;25.55;;;17.50;;
22363;SDS011;11349;53.412;-1.328;2023-04-15T00:30:42;30.50;;;19.25;;
22363;SDS011;11349;53.412;-1.328;2023-04-15T00:33:09;31.02;;;19.92;;
22363;SDS011;11349;53.412;-1.328;2023-04-15T00:35:35;29.35;;;18.92;;
22363;SDS011;11349;53.412;-1.328;2023-04-15T00:38:02;25.80;;;16.58;;
22363;SDS011;11349;53.412;-1.328;2023-04-15T00:40:28;22.10;;;15.48;;
22363;SDS011;11349;53.412;-1.328;2023-04-15T00:42:54;21.65;;;14.63;;
22363;SDS011;11349;53.412;-1.328;2023-04-15T00:45:20;22.60;;;14.82;;
22363;SDS011;11349;53.412;-1.328;2023-04-15T00:47:47;21.80;;;15.13;;
22363;SDS011;11349;53.412;-1.328;2023-04-15T00:50:13;19.92;;;13.40;;
22363;SDS011;11349;53.412;-1.328;2023-04-15T00:52:39;20.23;;;13.10;;
22363;SDS011;11349;53.412;-1.328;2023-04-15T00:55:05;19.45;;;13.77;;
22363;SDS011;11349;53.412;-1.328;2023-04-15T00:57:32;21.13;;;14.02;;
22363;SDS011;11349;53.412;-1.328;2023-04-15T00:59:59;21.23;;;14.23;;
22363;SDS011;11349;53.412;-1.328;2023-04-15T01:02:25;19.73;;;12.98;;
22363;SDS011;11349;53.412;-1.328;2023-04-15T01:04:51;18.00;;;12.13;;
22363;SDS011;11349;53.412;-1.328;2023-04-15T01:07:17;18.83;;;12.43;;
22363;SDS011;11349;53.412;-1.328;2023-04-15T01:09:42;17.83;;;12.50;;
22363;SDS011;11349;53.412;-1.328;2023-04-15T01:12:11;18.33;;;13.50;;
22363;SDS011;11349;53.412;-1.328;2023-04-15T01:14:39;20.30;;;13.90;;
22363;SDS011;11349;53.412;-1.328;2023-04-15T01:17:05;23.05;;;15.40;;
22363;SDS011;11349;53.412;-1.328;2023-04-15T01:19:31;21.60;;;14.93;;
22363;SDS011;11349;53.412;-1.328;2023-04-15T01:21:57;20.75;;;15.07;;
22363;SDS011;11349;53.412;-1.328;2023-04-15T01:24:23;23.23;;;15.48;;
22363;SDS011;11349;53.412;-1.328;2023-04-15T01:26:52;22.50;;;14.45;;
22363;SDS011;11349;53.412;-1.328;2023-04-15T01:29:18;21.30;;;14.70;;
22363;SDS011;11349;53.412;-1.328;2023-04-15T01:31:50;21.73;;;14.52;;
22363;SDS011;11349;53.412;-1.328;2023-04-15T01:34:16;22.35;;;16.02;;
22363;SDS011;11349;53.412;-1.328;2023-04-15T01:36:43;23.48;;;16.50;;
22363;SDS011;11349;53.412;-1.328;2023-04-15T01:39:09;23.58;;;16.38;;
22363;SDS011;11349;53.412;-1.328;2023-04-15T01:41:34;24.98;;;16.33;;
22363;SDS011;11349;53.412;-1.328;2023-04-15T01:44:00;20.92;;;15.38;;
22363;SDS011;11349;53.412;-1.328;2023-04-15T01:46:26;22.50;;;16.45;;
22363;SDS011;11349;53.412;-1.328;2023-04-15T01:48:52;23.58;;;17.17;;
22363;SDS011;11349;53.412;-1.328;2023-04-15T01:51:17;26.42;;;16.90;;
22363;SDS011;11349;53.412;-1.328;2023-04-15T01:53:43;22.10;;;16.15;;
22363;SDS011;11349;53.412;-1.328;2023-04-15T01:56:09;22.25;;;16.38;;
22363;SDS011;11349;53.412;-1.328;2023-04-15T01:58:35;23.67;;;16.60;;
22363;SDS011;11349;53.412;-1.328;2023-04-15T02:01:01;21.27;;;15.68;;
22363;SDS011;11349;53.412;-1.328;2023-04-15T02:03:28;23.17;;;16.42;;
22363;SDS011;11349;53.412;-1.328;2023-04-15T02:05:54;21.02;;;15.38;;
22363;SDS011;11349;53.412;-1.328;2023-04-15T02:08:20;22.52;;;16.90;;
22363;SDS011;11349;53.412;-1.328;2023-04-15T02:10:46;21.20;;;16.05;;
22363;SDS011;11349;53.412;-1.328;2023-04-15T02:13:12;23.67;;;15.98;;
22363;SDS011;11349;53.412;-1.328;2023-04-15T02:15:38;19.55;;;14.98;;
22363;SDS011;11349;53.412;-1.328;2023-04-15T02:18:04;22.38;;;16.13;;
22363;SDS011;11349;53.412;-1.328;2023-04-15T02:20:30;21.75;;;16.20;;
22363;SDS011;11349;53.412;-1.328;2023-04-15T02:22:56;18.70;;;14.38;;
22363;SDS011;11349;53.412;-1.328;2023-04-15T02:25:22;22.23;;;15.38;;
22363;SDS011;11349;53.412;-1.328;2023-04-15T02:27:47;20.13;;;14.70;;
22363;SDS011;11349;53.412;-1.328;2023-04-15T02:30:13;18.20;;;14.93;;
22363;SDS011;11349;53.412;-1.328;2023-04-15T02:32:39;19.17;;;13.88;;
22363;SDS011;11349;53.412;-1.328;2023-04-15T02:35:07;18.98;;;14.55;;
22363;SDS011;11349;53.412;-1.328;2023-04-15T02:37:34;18.48;;;15.10;;
22363;SDS011;11349;53.412;-1.328;2023-04-15T02:40:13;19.27;;;14.80;;
22363;SDS011;11349;53.412;-1.328;2023-04-15T02:42:39;19.42;;;15.32;;
22363;SDS011;11349;53.412;-1.328;2023-04-15T02:45:06;18.85;;;14.05;;
22363;SDS011;11349;53.412;-1.328;2023-04-15T02:47:33;17.65;;;14.13;;
22363;SDS011;11349;53.412;-1.328;2023-04-15T02:50:00;18.55;;;13.50;;
22363;SDS011;11349;53.412;-1.328;2023-04-15T02:52:28;16.45;;;13.68;;
22363;SDS011;11349;53.412;-1.328;2023-04-15T02:54:54;15.00;;;10.88;;
22363;SDS011;11349;53.412;-1.328;2023-04-15T02:57:24;14.13;;;11.52;;
22363;SDS011;11349;53.412;-1.328;2023-04-15T02:59:54;13.32;;;10.75;;
22363;SDS011;11349;53.412;-1.328;2023-04-15T03:02:20;12.45;;;10.25;;
22363;SDS011;11349;53.412;-1.328;2023-04-15T03:04:46;11.45;;;8.68;;
22363;SDS011;11349;53.412;-1.328;2023-04-15T03:07:12;11.23;;;8.38;;
22363;SDS011;11349;53.412;-1.328;2023-04-15T03:09:38;9.55;;;7.60;;
22363;SDS011;11349;53.412;-1.328;2023-04-15T03:12:05;8.68;;;7.28;;
22363;SDS011;11349;53.412;-1.328;2023-04-15T03:14:31;10.10;;;7.78;;
22363;SDS011;11349;53.412;-1.328;2023-04-15T03:16:57;8.55;;;6.95;;
22363;SDS011;11349;53.412;-1.328;2023-04-15T03:19:23;8.52;;;6.60;;
22363;SDS011;11349;53.412;-1.328;2023-04-15T03:21:49;8.98;;;6.85;;
22363;SDS011;11349;53.412;-1.328;2023-04-15T03:24:16;8.38;;;6.70;;
22363;SDS011;11349;53.412;-1.328;2023-04-15T03:26:42;11.48;;;7.25;;
22363;SDS011;11349;53.412;-1.328;2023-04-15T03:29:08;9.15;;;6.78;;
22363;SDS011;11349;53.412;-1.328;2023-04-15T03:31:33;9.50;;;7.32;;
22363;SDS011;11349;53.412;-1.328;2023-04-15T03:33:59;10.90;;;7.72;;
22363;SDS011;11349;53.412;-1.328;2023-04-15T03:36:25;11.10;;;7.55;;
22363;SDS011;11349;53.412;-1.328;2023-04-15T03:38:53;10.43;;;8.55;;
22363;SDS011;11349;53.412;-1.328;2023-04-15T03:41:20;11.85;;;8.40;;
22363;SDS011;11349;53.412;-1.328;2023-04-15T03:43:45;11.35;;;8.63;;
22363;SDS011;11349;53.412;-1.328;2023-04-15T03:46:11;12.10;;;8.70;;
22363;SDS011;11349;53.412;-1.328;2023-04-15T03:48:37;10.98;;;8.13;;
22363;SDS011;11349;53.412;-1.328;2023-04-15T03:51:02;12.95;;;9.00;;
22363;SDS011;11349;53.412;-1.328;2023-04-15T03:53:28;12.43;;;8.77;;
22363;SDS011;11349;53.412;-1.328;2023-04-15T03:55:54;13.65;;;9.35;;
22363;SDS011;11349;53.412;-1.328;2023-04-15T03:58:19;13.93;;;9.10;;
22363;SDS011;11349;53.412;-1.328;2023-04-15T04:00:45;11.45;;;8.77;;
22363;SDS011;11349;53.412;-1.328;2023-04-15T04:03:11;13.45;;;9.70;;
22363;SDS011;11349;53.412;-1.328;2023-04-15T04:05:37;14.98;;;9.35;;
22363;SDS011;11349;53.412;-1.328;2023-04-15T04:08:03;13.20;;;9.32;;
22363;SDS011;11349;53.412;-1.328;2023-04-15T04:10:29;15.63;;;9.43;;
22363;SDS011;11349;53.412;-1.328;2023-04-15T04:12:55;12.20;;;8.75;;
22363;SDS011;11349;53.412;-1.328;2023-04-15T04:15:20;13.13;;;9.20;;
22363;SDS011;11349;53.412;-1.328;2023-04-15T04:17:46;12.70;;;9.27;;
22363;SDS011;11349;53.412;-1.328;2023-04-15T04:20:12;13.00;;;9.75;;
22363;SDS011;11349;53.412;-1.328;2023-04-15T04:22:38;14.93;;;11.02;;
22363;SDS011;11349;53.412;-1.328;2023-04-15T04:25:04;14.55;;;10.27;;
22363;SDS011;11349;53.412;-1.328;2023-04-15T04:27:32;14.15;;;10.27;;
22363;SDS011;11349;53.412;-1.328;2023-04-15T04:29:58;16.00;;;10.48;;
22363;SDS011;11349;53.412;-1.328;2023-04-15T04:32:24;13.15;;;10.20;;
22363;SDS011;11349;53.412;-1.328;2023-04-15T04:34:50;14.27;;;9.93;;
22363;SDS011;11349;53.412;-1.328;2023-04-15T04:37:15;14.15;;;10.00;;
22363;SDS011;11349;53.412;-1.328;2023-04-15T04:39:41;14.75;;;10.57;;
22363;SDS011;11349;53.412;-1.328;2023-04-15T04:42:07;14.43;;;10.23;;
22363;SDS011;11349;53.412;-1.328;2023-04-15T04:44:33;15.13;;;10.30;;
22363;SDS011;11349;53.412;-1.328;2023-04-15T04:46:58;13.05;;;9.95;;
22363;SDS011;11349;53.412;-1.328;2023-04-15T04:49:24;15.05;;;9.95;;
22363;SDS011;11349;53.412;-1.328;2023-04-15T04:51:50;15.50;;;11.07;;
22363;SDS011;11349;53.412;-1.328;2023-04-15T04:54:16;14.50;;;10.30;;
22363;SDS011;11349;53.412;-1.328;2023-04-15T04:56:41;16.38;;;11.10;;
22363;SDS011;11349;53.412;-1.328;2023-04-15T04:59:07;14.68;;;10.30;;
22363;SDS011;11349;53.412;-1.328;2023-04-15T05:01:33;14.93;;;10.60;;
22363;SDS011;11349;53.412;-1.328;2023-04-15T05:03:59;15.45;;;11.07;;
22363;SDS011;11349;53.412;-1.328;2023-04-15T05:06:25;16.13;;;11.43;;
22363;SDS011;11349;53.412;-1.328;2023-04-15T05:08:51;17.65;;;10.85;;
22363;SDS011;11349;53.412;-1.328;2023-04-15T05:11:17;17.45;;;11.13;;
22363;SDS011;11349;53.412;-1.328;2023-04-15T05:13:43;16.27;;;11.25;;
22363;SDS011;11349;53.412;-1.328;2023-04-15T05:16:08;15.98;;;11.43;;
22363;SDS011;11349;53.412;-1.328;2023-04-15T05:18:34;17.20;;;11.35;;
22363;SDS011;11349;53.412;-1.328;2023-04-15T05:21:00;14.82;;;10.77;;
22363;SDS011;11349;53.412;-1.328;2023-04-15T05:23:26;14.63;;;10.82;;
22363;SDS011;11349;53.412;-1.328;2023-04-15T05:25:52;16.33;;;11.07;;
22363;SDS011;11349;53.412;-1.328;2023-04-15T05:28:18;15.27;;;10.85;;
22363;SDS011;11349;53.412;-1.328;2023-04-15T05:30:44;15.95;;;10.65;;
22363;SDS011;11349;53.412;-1.328;2023-04-15T05:33:10;16.67;;;11.18;;
22363;SDS011;11349;53.412;-1.328;2023-04-15T05:35:36;19.88;;;12.25;;
22363;SDS011;11349;53.412;-1.328;2023-04-15T05:38:01;15.68;;;11.05;;
22363;SDS011;11349;53.412;-1.328;2023-04-15T05:40:27;17.08;;;12.00;;
22363;SDS011;11349;53.412;-1.328;2023-04-15T05:42:54;16.50;;;11.07;;
22363;SDS011;11349;53.412;-1.328;2023-04-15T05:45:20;17.08;;;11.23;;
22363;SDS011;11349;53.412;-1.328;2023-04-15T05:47:46;18.67;;;11.70;;
22363;SDS011;11349;53.412;-1.328;2023-04-15T05:50:14;17.20;;;11.57;;
22363;SDS011;11349;53.412;-1.328;2023-04-15T05:52:40;16.15;;;10.73;;
22363;SDS011;11349;53.412;-1.328;2023-04-15T05:55:06;17.63;;;11.95;;
22363;SDS011;11349;53.412;-1.328;2023-04-15T05:57:31;15.70;;;10.65;;
22363;SDS011;11349;53.412;-1.328;2023-04-15T05:59:57;19.90;;;11.60;;
22363;SDS011;11349;53.412;-1.328;2023-04-15T06:02:23;17.60;;;11.63;;
22363;SDS011;11349;53.412;-1.328;2023-04-15T06:04:48;17.88;;;12.52;;
22363;SDS011;11349;53.412;-1.328;2023-04-15T06:07:14;17.58;;;12.50;;
22363;SDS011;11349;53.412;-1.328;2023-04-15T06:09:42;18.88;;;12.73;;
22363;SDS011;11349;53.412;-1.328;2023-04-15T06:12:08;16.52;;;11.30;;
22363;SDS011;11349;53.412;-1.328;2023-04-15T06:14:36;19.33;;;13.38;;
22363;SDS011;11349;53.412;-1.328;2023-04-15T06:17:03;19.70;;;13.13;;
22363;SDS011;11349;53.412;-1.328;2023-04-15T06:19:29;16.48;;;12.68;;
22363;SDS011;11349;53.412;-1.328;2023-04-15T06:21:55;18.00;;;13.43;;
22363;SDS011;11349;53.412;-1.328;2023-04-15T06:24:20;20.27;;;12.95;;
22363;SDS011;11349;53.412;-1.328;2023-04-15T06:26:46;19.73;;;12.43;;
22363;SDS011;11349;53.412;-1.328;2023-04-15T06:29:12;20.75;;;12.80;;
22363;SDS011;11349;53.412;-1.328;2023-04-15T06:31:38;19.23;;;13.75;;
22363;SDS011;11349;53.412;-1.328;2023-04-15T06:34:04;20.75;;;14.10;;
22363;SDS011;11349;53.412;-1.328;2023-04-15T06:36:30;20.83;;;14.73;;
22363;SDS011;11349;53.412;-1.328;2023-04-15T06:38:56;16.92;;;12.68;;
22363;SDS011;11349;53.412;-1.328;2023-04-15T06:41:22;21.38;;;14.90;;
22363;SDS011;11349;53.412;-1.328;2023-04-15T06:43:48;23.65;;;13.73;;
22363;SDS011;11349;53.412;-1.328;2023-04-15T06:46:13;21.40;;;13.70;;
22363;SDS011;11349;53.412;-1.328;2023-04-15T06:48:39;18.80;;;12.43;;
22363;SDS011;11349;53.412;-1.328;2023-04-15T06:51:05;23.10;;;14.25;;
22363;SDS011;11349;53.412;-1.328;2023-04-15T06:53:31;20.73;;;13.65;;
22363;SDS011;11349;53.412;-1.328;2023-04-15T06:55:57;22.63;;;14.15;;
22363;SDS011;11349;53.412;-1.328;2023-04-15T06:58:23;21.40;;;14.20;;
22363;SDS011;11349;53.412;-1.328;2023-04-15T07:00:48;18.45;;;12.77;;
22363;SDS011;11349;53.412;-1.328;2023-04-15T07:03:14;20.63;;;13.90;;
22363;SDS011;11349;53.412;-1.328;2023-04-15T07:05:40;21.83;;;13.77;;
22363;SDS011;11349;53.412;-1.328;2023-04-15T07:08:06;22.45;;;12.82;;
22363;SDS011;11349;53.412;-1.328;2023-04-15T07:10:35;21.55;;;13.23;;
22363;SDS011;11349;53.412;-1.328;2023-04-15T07:13:01;19.75;;;13.43;;
22363;SDS011;11349;53.412;-1.328;2023-04-15T07:15:26;20.75;;;14.00;;
22363;SDS011;11349;53.412;-1.328;2023-04-15T07:17:52;20.40;;;13.45;;
22363;SDS011;11349;53.412;-1.328;2023-04-15T07:20:18;21.02;;;13.75;;
22363;SDS011;11349;53.412;-1.328;2023-04-15T07:22:44;24.55;;;14.68;;
22363;SDS011;11349;53.412;-1.328;2023-04-15T07:25:10;19.95;;;13.80;;
22363;SDS011;11349;53.412;-1.328;2023-04-15T07:27:35;18.58;;;13.50;;
22363;SDS011;11349;53.412;-1.328;2023-04-15T07:30:01;20.73;;;12.75;;
22363;SDS011;11349;53.412;-1.328;2023-04-15T07:32:27;19.83;;;13.23;;
22363;SDS011;11349;53.412;-1.328;2023-04-15T07:34:53;18.30;;;12.90;;
22363;SDS011;11349;53.412;-1.328;2023-04-15T07:37:18;24.42;;;13.65;;
22363;SDS011;11349;53.412;-1.328;2023-04-15T07:39:44;18.42;;;12.40;;
22363;SDS011;11349;53.412;-1.328;2023-04-15T07:42:10;19.77;;;13.20;;
22363;SDS011;11349;53.412;-1.328;2023-04-15T07:44:35;19.67;;;12.05;;
22363;SDS011;11349;53.412;-1.328;2023-04-15T07:47:01;18.33;;;12.45;;
22363;SDS011;11349;53.412;-1.328;2023-04-15T07:49:27;18.92;;;13.30;;
22363;SDS011;11349;53.412;-1.328;2023-04-15T07:51:53;21.70;;;13.35;;
22363;SDS011;11349;53.412;-1.328;2023-04-15T07:54:20;21.58;;;14.27;;
22363;SDS011;11349;53.412;-1.328;2023-04-15T07:56:46;21.83;;;13.13;;
22363;SDS011;11349;53.412;-1.328;2023-04-15T07:59:13;22.77;;;13.15;;
22363;SDS011;11349;53.412;-1.328;2023-04-15T08:01:42;20.02;;;13.05;;
22363;SDS011;11349;53.412;-1.328;2023-04-15T08:04:08;18.88;;;12.52;;
22363;SDS011;11349;53.412;-1.328;2023-04-15T08:06:34;18.73;;;12.45;;
22363;SDS011;11349;53.412;-1.328;2023-04-15T08:09:00;20.27;;;13.90;;
22363;SDS011;11349;53.412;-1.328;2023-04-15T08:11:26;19.90;;;12.57;;
22363;SDS011;11349;53.412;-1.328;2023-04-15T08:13:52;19.17;;;12.32;;
22363;SDS011;11349;53.412;-1.328;2023-04-15T08:18:45;19.05;;;13.43;;
22363;SDS011;11349;53.412;-1.328;2023-04-15T08:21:14;20.73;;;13.18;;
22363;SDS011;11349;53.412;-1.328;2023-04-15T08:23:42;18.55;;;12.18;;
22363;SDS011;11349;53.412;-1.328;2023-04-15T08:26:08;20.95;;;13.45;;
22363;SDS011;11349;53.412;-1.328;2023-04-15T08:28:35;22.58;;;12.98;;
22363;SDS011;11349;53.412;-1.328;2023-04-15T08:31:02;18.73;;;12.93;;
22363;SDS011;11349;53.412;-1.328;2023-04-15T08:33:27;17.80;;;13.45;;
22363;SDS011;11349;53.412;-1.328;2023-04-15T08:35:53;19.15;;;13.20;;
22363;SDS011;11349;53.412;-1.328;2023-04-15T08:38:19;21.25;;;14.13;;
22363;SDS011;11349;53.412;-1.328;2023-04-15T08:40:44;19.45;;;13.20;;
22363;SDS011;11349;53.412;-1.328;2023-04-15T08:43:57;18.58;;;12.60;;
22363;SDS011;11349;53.412;-1.328;2023-04-15T08:46:05;21.30;;;14.00;;
22363;SDS011;11349;53.412;-1.328;2023-04-15T08:48:33;19.52;;;12.98;;
22363;SDS011;11349;53.412;-1.328;2023-04-15T08:51:02;20.80;;;13.57;;
22363;SDS011;11349;53.412;-1.328;2023-04-15T08:53:29;19.23;;;12.13;;
22363;SDS011;11349;53.412;-1.328;2023-04-15T08:55:55;19.23;;;13.45;;
22363;SDS011;11349;53.412;-1.328;2023-04-15T08:58:22;19.42;;;12.75;;
22363;SDS011;11349;53.412;-1.328;2023-04-15T09:00:49;21.58;;;12.73;;
22363;SDS011;11349;53.412;-1.328;2023-04-15T09:03:15;19.88;;;13.50;;
22363;SDS011;11349;53.412;-1.328;2023-04-15T09:05:41;20.42;;;13.43;;
22363;SDS011;11349;53.412;-1.328;2023-04-15T09:08:08;18.52;;;12.20;;
22363;SDS011;11349;53.412;-1.328;2023-04-15T09:10:33;17.40;;;12.60;;
22363;SDS011;11349;53.412;-1.328;2023-04-15T09:12:59;17.33;;;12.50;;
22363;SDS011;11349;53.412;-1.328;2023-04-15T09:15:26;19.25;;;11.65;;
22363;SDS011;11349;53.412;-1.328;2023-04-15T09:17:53;17.77;;;11.98;;
22363;SDS011;11349;53.412;-1.328;2023-04-15T09:20:20;19.23;;;11.10;;
22363;SDS011;11349;53.412;-1.328;2023-04-15T09:22:46;18.15;;;11.27;;
22363;SDS011;11349;53.412;-1.328;2023-04-15T09:27:52;20.45;;;12.10;;
22363;SDS011;11349;53.412;-1.328;2023-04-15T09:30:22;18.90;;;11.88;;
22363;SDS011;11349;53.412;-1.328;2023-04-15T09:32:51;21.35;;;12.18;;
22363;SDS011;11349;53.412;-1.328;2023-04-15T09:35:23;20.30;;;12.70;;
22363;SDS011;11349;53.412;-1.328;2023-04-15T09:37:50;18.13;;;12.05;;
22363;SDS011;11349;53.412;-1.328;2023-04-15T09:40:32;18.98;;;11.90;;
22363;SDS011;11349;53.412;-1.328;2023-04-15T09:43:00;21.77;;;13.55;;
22363;SDS011;11349;53.412;-1.328;2023-04-15T09:45:27;16.40;;;11.82;;
22363;SDS011;11349;53.412;-1.328;2023-04-15T09:47:53;17.90;;;12.02;;
22363;SDS011;11349;53.412;-1.328;2023-04-15T09:50:21;15.80;;;10.45;;
22363;SDS011;11349;53.412;-1.328;2023-04-15T09:52:46;17.98;;;11.32;;
22363;SDS011;11349;53.412;-1.328;2023-04-15T09:55:13;18.42;;;9.82;;
22363;SDS011;11349;53.412;-1.328;2023-04-15T09:57:39;14.73;;;9.30;;
22363;SDS011;11349;53.412;-1.328;2023-04-15T10:00:06;15.48;;;9.88;;
22363;SDS011;11349;53.412;-1.328;2023-04-15T10:02:33;14.13;;;8.52;;
22363;SDS011;11349;53.412;-1.328;2023-04-15T10:05:00;14.60;;;8.90;;
22363;SDS011;11349;53.412;-1.328;2023-04-15T10:07:27;16.92;;;8.18;;
22363;SDS011;11349;53.412;-1.328;2023-04-15T10:09:53;13.93;;;7.82;;
22363;SDS011;11349;53.412;-1.328;2023-04-15T10:12:20;14.25;;;8.07;;
22363;SDS011;11349;53.412;-1.328;2023-04-15T10:14:55;11.82;;;8.40;;
22363;SDS011;11349;53.412;-1.328;2023-04-15T10:17:23;14.98;;;8.38;;
22363;SDS011;11349;53.412;-1.328;2023-04-15T10:19:59;15.63;;;8.43;;
22363;SDS011;11349;53.412;-1.328;2023-04-15T10:22:27;13.55;;;8.15;;
22363;SDS011;11349;53.412;-1.328;2023-04-15T10:24:53;15.70;;;7.70;;
22363;SDS011;11349;53.412;-1.328;2023-04-15T10:27:20;16.35;;;7.78;;
22363;SDS011;11349;53.412;-1.328;2023-04-15T10:29:47;13.02;;;7.80;;
22363;SDS011;11349;53.412;-1.328;2023-04-15T10:32:14;13.57;;;8.00;;
22363;SDS011;11349;53.412;-1.328;2023-04-15T10:34:43;12.75;;;6.40;;
22363;SDS011;11349;53.412;-1.328;2023-04-15T10:37:10;14.07;;;7.50;;
22363;SDS011;11349;53.412;-1.328;2023-04-15T10:42:13;13.90;;;7.32;;
22363;SDS011;11349;53.412;-1.328;2023-04-15T10:44:55;15.15;;;8.27;;
22363;SDS011;11349;53.412;-1.328;2023-04-15T10:47:21;12.95;;;7.05;;
22363;SDS011;11349;53.412;-1.328;2023-04-15T10:49:50;12.02;;;6.85;;
22363;SDS011;11349;53.412;-1.328;2023-04-15T10:52:22;12.82;;;7.32;;
22363;SDS011;11349;53.412;-1.328;2023-04-15T10:55:02;10.88;;;7.15;;
22363;SDS011;11349;53.412;-1.328;2023-04-15T10:57:54;12.88;;;7.10;;
22363;SDS011;11349;53.412;-1.328;2023-04-15T11:00:25;13.02;;;6.88;;
22363;SDS011;11349;53.412;-1.328;2023-04-15T11:02:59;9.73;;;6.82;;
22363;SDS011;11349;53.412;-1.328;2023-04-15T11:08:14;11.65;;;6.53;;
22363;SDS011;11349;53.412;-1.328;2023-04-15T11:15:41;13.52;;;6.25;;
22363;SDS011;11349;53.412;-1.328;2023-04-15T11:18:52;9.30;;;6.45;;
22363;SDS011;11349;53.412;-1.328;2023-04-15T11:21:06;10.98;;;6.50;;
22363;SDS011;11349;53.412;-1.328;2023-04-15T11:23:37;12.20;;;7.32;;
22363;SDS011;11349;53.412;-1.328;2023-04-15T11:26:06;11.77;;;7.25;;
22363;SDS011;11349;53.412;-1.328;2023-04-15T11:28:40;10.95;;;6.75;;
22363;SDS011;11349;53.412;-1.328;2023-04-15T11:31:13;10.85;;;7.18;;
22363;SDS011;11349;53.412;-1.328;2023-04-15T11:33:44;11.55;;;6.53;;
22363;SDS011;11349;53.412;-1.328;2023-04-15T11:36:11;7.55;;;5.55;;
22363;SDS011;11349;53.412;-1.328;2023-04-15T11:38:41;10.93;;;6.45;;
22363;SDS011;11349;53.412;-1.328;2023-04-15T11:41:07;9.98;;;7.10;;
22363;SDS011;11349;53.412;-1.328;2023-04-15T11:43:32;9.90;;;6.95;;
22363;SDS011;11349;53.412;-1.328;2023-04-15T11:46:00;8.35;;;6.53;;
22363;SDS011;11349;53.412;-1.328;2023-04-15T11:48:30;9.48;;;6.57;;
22363;SDS011;11349;53.412;-1.328;2023-04-15T11:50:58;12.02;;;6.78;;
22363;SDS011;11349;53.412;-1.328;2023-04-15T11:53:24;9.32;;;6.10;;
22363;SDS011;11349;53.412;-1.328;2023-04-15T11:56:15;14.18;;;6.30;;
22363;SDS011;11349;53.412;-1.328;2023-04-15T11:58:41;10.63;;;7.15;;
22363;SDS011;11349;53.412;-1.328;2023-04-15T12:01:07;8.82;;;6.00;;
22363;SDS011;11349;53.412;-1.328;2023-04-15T12:03:41;10.35;;;6.50;;
22363;SDS011;11349;53.412;-1.328;2023-04-15T12:06:16;11.00;;;6.43;;
22363;SDS011;11349;53.412;-1.328;2023-04-15T12:13:54;10.77;;;6.15;;
22363;SDS011;11349;53.412;-1.328;2023-04-15T12:16:22;9.20;;;6.38;;
22363;SDS011;11349;53.412;-1.328;2023-04-15T12:18:52;13.43;;;6.82;;
22363;SDS011;11349;53.412;-1.328;2023-04-15T12:21:23;9.52;;;6.35;;
22363;SDS011;11349;53.412;-1.328;2023-04-15T12:23:51;10.85;;;6.55;;
22363;SDS011;11349;53.412;-1.328;2023-04-15T12:26:27;9.02;;;5.38;;
22363;SDS011;11349;53.412;-1.328;2023-04-15T12:29:07;9.75;;;6.30;;
22363;SDS011;11349;53.412;-1.328;2023-04-15T12:31:36;11.02;;;5.93;;
22363;SDS011;11349;53.412;-1.328;2023-04-15T12:34:11;8.85;;;5.80;;
22363;SDS011;11349;53.412;-1.328;2023-04-15T12:36:38;10.07;;;5.72;;
22363;SDS011;11349;53.412;-1.328;2023-04-15T12:39:09;12.10;;;6.10;;
22363;SDS011;11349;53.412;-1.328;2023-04-15T12:41:34;10.57;;;5.97;;
22363;SDS011;11349;53.412;-1.328;2023-04-15T12:44:00;11.88;;;5.63;;
22363;SDS011;11349;53.412;-1.328;2023-04-15T12:46:26;7.95;;;5.47;;
22363;SDS011;11349;53.412;-1.328;2023-04-15T12:48:52;9.82;;;5.97;;
22363;SDS011;11349;53.412;-1.328;2023-04-15T12:51:18;9.98;;;5.25;;
22363;SDS011;11349;53.412;-1.328;2023-04-15T12:53:45;7.97;;;4.72;;
22363;SDS011;11349;53.412;-1.328;2023-04-15T12:56:12;8.88;;;5.60;;
22363;SDS011;11349;53.412;-1.328;2023-04-15T12:58:38;8.18;;;5.20;;
22363;SDS011;11349;53.412;-1.328;2023-04-15T13:01:03;10.18;;;5.53;;
22363;SDS011;11349;53.412;-1.328;2023-04-15T13:03:30;9.35;;;4.85;;
22363;SDS011;11349;53.412;-1.328;2023-04-15T13:05:56;10.15;;;6.05;;
22363;SDS011;11349;53.412;-1.328;2023-04-15T13:08:22;12.00;;;5.22;;
22363;SDS011;11349;53.412;-1.328;2023-04-15T13:10:47;10.38;;;5.15;;
22363;SDS011;11349;53.412;-1.328;2023-04-15T13:13:13;10.07;;;6.43;;
22363;SDS011;11349;53.412;-1.328;2023-04-15T13:15:39;8.20;;;5.32;;
22363;SDS011;11349;53.412;-1.328;2023-04-15T13:18:05;10.65;;;4.97;;
22363;SDS011;11349;53.412;-1.328;2023-04-15T13:20:31;9.98;;;5.93;;
22363;SDS011;11349;53.412;-1.328;2023-04-15T13:22:57;8.57;;;5.05;;
22363;SDS011;11349;53.412;-1.328;2023-04-15T13:25:23;9.88;;;5.32;;
22363;SDS011;11349;53.412;-1.328;2023-04-15T13:27:50;12.02;;;5.05;;
22363;SDS011;11349;53.412;-1.328;2023-04-15T13:30:15;9.65;;;5.80;;
22363;SDS011;11349;53.412;-1.328;2023-04-15T13:32:41;7.53;;;5.18;;
22363;SDS011;11349;53.412;-1.328;2023-04-15T13:35:07;11.00;;;5.03;;
22363;SDS011;11349;53.412;-1.328;2023-04-15T13:37:33;12.35;;;5.22;;
22363;SDS011;11349;53.412;-1.328;2023-04-15T13:39:58;10.15;;;5.22;;
22363;SDS011;11349;53.412;-1.328;2023-04-15T13:42:24;11.68;;;5.25;;
22363;SDS011;11349;53.412;-1.328;2023-04-15T13:44:51;9.77;;;5.03;;
22363;SDS011;11349;53.412;-1.328;2023-04-15T13:47:20;9.88;;;5.10;;
22363;SDS011;11349;53.412;-1.328;2023-04-15T13:49:46;10.20;;;6.47;;
22363;SDS011;11349;53.412;-1.328;2023-04-15T13:52:11;8.55;;;4.78;;
22363;SDS011;11349;53.412;-1.328;2023-04-15T13:54:40;8.00;;;5.43;;
22363;SDS011;11349;53.412;-1.328;2023-04-15T13:57:05;13.23;;;5.65;;
22363;SDS011;11349;53.412;-1.328;2023-04-15T13:59:34;8.48;;;5.15;;
22363;SDS011;11349;53.412;-1.328;2023-04-15T14:02:00;9.63;;;4.97;;
22363;SDS011;11349;53.412;-1.328;2023-04-15T14:04:26;9.00;;;4.55;;
22363;SDS011;11349;53.412;-1.328;2023-04-15T14:06:52;11.27;;;5.32;;
22363;SDS011;11349;53.412;-1.328;2023-04-15T14:09:18;8.57;;;4.78;;
22363;SDS011;11349;53.412;-1.328;2023-04-15T14:11:46;11.80;;;5.90;;
22363;SDS011;11349;53.412;-1.328;2023-04-15T14:14:11;10.70;;;5.38;;
22363;SDS011;11349;53.412;-1.328;2023-04-15T14:16:37;9.38;;;4.82;;
22363;SDS011;11349;53.412;-1.328;2023-04-15T14:19:03;9.85;;;5.10;;
22363;SDS011;11349;53.412;-1.328;2023-04-15T14:21:29;6.97;;;4.45;;
22363;SDS011;11349;53.412;-1.328;2023-04-15T14:23:56;9.32;;;4.30;;
22363;SDS011;11349;53.412;-1.328;2023-04-15T14:26:22;9.85;;;4.93;;
22363;SDS011;11349;53.412;-1.328;2023-04-15T14:28:48;9.38;;;4.90;;
22363;SDS011;11349;53.412;-1.328;2023-04-15T14:31:14;10.10;;;5.22;;
22363;SDS011;11349;53.412;-1.328;2023-04-15T14:33:40;8.80;;;5.10;;
22363;SDS011;11349;53.412;-1.328;2023-04-15T14:36:06;11.05;;;5.28;;